SECU/CUE METAR and TAF weather

Enter ICAO airport designator
Station Type Date Time Source
SECU METAR 2019/06/17 15:00 UTC NOAA

SECU 171500Z 34003KT 9999 BKN033 15/10 Q1030


Station Type Date Time Source
SECU Decoded METAR 2019/06/17 15:00 UTC NOAA

Cuenca / Mariscal Lamar, Ecuador (SECU) 02-53S 078-59W 2531M
Jun 17, 2019 - 11:00 AM EDT / 2019.06.17 1500 UTC
Wind: from the NNW (340 degrees) at 3 MPH (3 KT):0
Visibility: greater than 7 mile(s):0
Sky conditions: mostly cloudy
Temperature: 59 F (15 C)
Dew Point: 50 F (10 C)
Relative Humidity: 72%
Pressure (altimeter): 30.42 in. Hg (1030 hPa)
ob: SECU 171500Z 34003KT 9999 BKN033 15/10 Q1030
cycle: 15

Station Type Date Time Source
SECU TAF 2019/04/02 18:03 UTC NOAA

TAF SECU 021640Z 0218/0318 16008KT 9999 SCT033 SCT100
TEMPO 0221/0224 SHRA BKN030TCU BKN100
FM030000 05004KT 9999 RA BKN033 OVC100
FM030500 VRB03KT 9999 FEW008 BKN030 BKN100
FM031500 16005KT 9999 SCT030 SCT100 TX21/0219Z TN12/0310Z

Example: see airport list